Time;durP1;ratioP1;P1;durP2;ratioP2;P2;SDS_P1;SDS_P2;PMS_P1;PMS_P2;Temp;Humidity;BMP_temperature;BMP_pressure;BME280_temperature;BME280_humidity;BME280_pressure;Samples;Min_cycle;Max_cycle;Signal;HPM_P1;HPM_P2
2021/09/10 00:02:04;;;;;;;14.50;11.20;;;;;;;14.26;74.85;100601.30;94386;1192;93726;-68
2021/09/10 00:04:11;;;;;;;14.00;9.80;;;;;;;14.26;74.87;100599.77;94425;1192;80559;-68
2021/09/10 00:06:19;;;;;;;13.20;10.50;;;;;;;14.24;74.99;100600.77;94428;1192;81727;-68
2021/09/10 00:08:26;;;;;;;13.40;10.10;;;;;;;14.21;74.93;100601.64;94405;1192;97497;-67
2021/09/10 00:10:34;;;;;;;14.20;10.70;;;;;;;14.17;75.06;100600.02;94390;1192;86516;-69
2021/09/10 00:12:42;;;;;;;12.70;10.90;;;;;;;14.14;75.06;100598.42;94450;1192;92798;-68
2021/09/10 00:14:50;;;;;;;12.70;10.40;;;;;;;14.12;75.05;100596.20;94384;1192;81068;-67
2021/09/10 00:16:57;;;;;;;13.20;10.70;;;;;;;14.06;75.12;100593.56;94411;1192;80368;-68
2021/09/10 00:19:05;;;;;;;16.10;11.60;;;;;;;14.05;75.17;100597.12;94434;1192;98708;-68
2021/09/10 00:21:13;;;;;;;17.20;11.30;;;;;;;14.04;75.08;100594.01;94178;1193;88090;-73
2021/09/10 00:23:21;;;;;;;14.50;11.60;;;;;;;13.98;75.29;100592.09;94244;1193;93269;-75
2021/09/10 00:25:28;;;;;;;13.40;11.10;;;;;;;13.98;75.32;100591.20;94397;1192;80085;-68
2021/09/10 00:27:36;;;;;;;13.30;10.70;;;;;;;13.98;75.41;100592.50;94413;1192;80954;-69
2021/09/10 00:29:44;;;;;;;16.90;11.20;;;;;;;13.95;75.37;100594.05;94408;1192;98054;-74
2021/09/10 00:31:51;;;;;;;14.50;10.70;;;;;;;13.92;75.47;100593.16;94405;1192;87467;-74
2021/09/10 00:34:02;;;;;;;15.00;11.20;;;;;;;13.91;75.56;100592.54;94448;1192;93652;-75
2021/09/10 00:36:13;;;;;;;13.40;11.30;;;;;;;13.90;75.64;100591.16;94408;1192;81422;-74
2021/09/10 00:38:20;;;;;;;13.10;11.00;;;;;;;13.90;75.63;100592.45;94405;1192;82259;-74
2021/09/10 00:40:28;;;;;;;13.50;10.80;;;;;;;13.90;75.67;100591.20;94442;1192;97374;-68
2021/09/10 00:42:35;;;;;;;14.90;11.60;;;;;;;13.88;75.63;100590.53;94453;1192;87724;-68
2021/09/10 00:44:43;;;;;;;15.80;10.70;;;;;;;13.88;75.79;100591.02;94424;1192;94945;-73
2021/09/10 00:46:52;;;;;;;12.80;10.60;;;;;;;13.84;75.82;100586.05;94451;1192;80101;-75
2021/09/10 00:49:00;;;;;;;16.60;12.00;;;;;;;13.78;75.78;100587.45;94474;1192;82164;-74
2021/09/10 00:51:11;;;;;;;14.50;10.60;;;;;;;13.76;75.77;100587.08;94354;1192;97063;-68
2021/09/10 00:53:19;;;;;;;14.20;11.60;;;;;;;13.73;75.82;100587.56;94437;1192;88423;-67
2021/09/10 00:55:30;;;;;;;13.60;11.70;;;;;;;13.68;75.77;100584.63;94425;1192;94278;-73
2021/09/10 00:57:38;;;;;;;15.80;10.60;;;;;;;13.67;75.81;100584.75;94471;1192;80230;-73
2021/09/10 00:59:45;;;;;;;13.80;10.90;;;;;;;13.64;75.84;100581.35;94430;1192;80967;-68
2021/09/10 01:01:54;;;;;;;13.20;11.50;;;;;;;13.63;75.97;100584.06;94398;1192;97423;-68
2021/09/10 01:04:04;;;;;;;13.50;11.20;;;;;;;13.63;76.05;100583.56;94447;1192;87244;-68
2021/09/10 01:06:12;;;;;;;13.60;11.10;;;;;;;13.61;75.93;100585.57;94412;1192;94071;-74
2021/09/10 01:08:21;;;;;;;14.80;11.20;;;;;;;13.59;75.89;100584.69;94453;1192;80457;-74
2021/09/10 01:10:29;;;;;;;14.10;11.70;;;;;;;13.56;75.96;100582.42;94421;1192;82052;-68
2021/09/10 01:12:41;;;;;;;14.60;11.10;;;;;;;13.48;76.00;100576.01;94471;1192;97680;-69
2021/09/10 01:14:50;;;;;;;14.70;12.10;;;;;;;13.44;76.03;100576.66;94436;1192;87530;-73
2021/09/10 01:16:58;;;;;;;15.20;11.80;;;;;;;13.42;76.01;100578.54;94437;1192;92604;-73
2021/09/10 01:19:06;;;;;;;16.80;13.00;;;;;;;13.38;76.11;100579.05;94413;1192;79325;-74
2021/09/10 01:21:13;;;;;;;15.40;11.60;;;;;;;13.31;76.15;100576.00;94414;1192;82283;-74
2021/09/10 01:23:24;;;;;;;16.60;11.40;;;;;;;13.30;76.19;100575.98;94442;1192;97382;-74
2021/09/10 01:25:31;;;;;;;14.50;11.70;;;;;;;13.30;76.36;100576.15;94397;1192;88257;-74
2021/09/10 01:27:40;;;;;;;15.60;12.00;;;;;;;13.33;76.44;100577.20;94424;1192;92688;-74
2021/09/10 01:29:48;;;;;;;17.20;12.40;;;;;;;13.32;76.46;100573.55;94432;1192;81445;-74
2021/09/10 01:31:56;;;;;;;16.20;11.90;;;;;;;13.32;76.54;100570.14;94432;1192;79921;-73
2021/09/10 01:34:07;;;;;;;15.80;12.20;;;;;;;13.30;76.60;100571.86;94455;1192;97249;-73
2021/09/10 01:36:15;;;;;;;17.90;12.50;;;;;;;13.35;76.71;100572.66;94242;1193;87279;-67
2021/09/10 01:38:24;;;;;;;16.50;11.80;;;;;;;13.36;76.79;100575.17;94398;1192;93865;-69
2021/09/10 01:40:32;;;;;;;14.60;11.90;;;;;;;13.36;76.78;100573.75;94396;1192;79833;-68
2021/09/10 01:42:41;;;;;;;15.60;12.10;;;;;;;13.36;76.77;100572.88;94397;1192;82144;-69
2021/09/10 01:44:48;;;;;;;14.90;11.40;;;;;;;13.35;76.77;100568.61;94413;1192;97420;-68
2021/09/10 01:46:56;;;;;;;13.30;10.70;;;;;;;13.33;76.77;100567.86;94469;1192;88494;-68
2021/09/10 01:49:04;;;;;;;15.70;12.60;;;;;;;13.26;76.82;100567.06;94436;1192;93084;-69
2021/09/10 01:51:11;;;;;;;16.30;12.10;;;;;;;13.21;76.94;100566.89;94371;1192;79464;-68
2021/09/10 01:53:20;;;;;;;13.60;11.30;;;;;;;13.20;76.97;100565.59;94463;1192;82608;-69
2021/09/10 01:55:30;;;;;;;13.60;11.50;;;;;;;13.18;77.02;100564.53;94418;1192;98659;-69
2021/09/10 01:57:38;;;;;;;15.10;12.10;;;;;;;13.16;77.08;100563.81;94437;1192;88354;-69
2021/09/10 01:59:46;;;;;;;17.00;11.70;;;;;;;13.10;77.14;100562.88;94447;1192;94541;-69
2021/09/10 02:01:53;;;;;;;15.60;12.50;;;;;;;13.08;77.14;100567.15;94368;1192;80406;-68
2021/09/10 02:04:01;;;;;;;15.20;11.90;;;;;;;13.08;77.17;100565.45;94421;1192;80180;-68
2021/09/10 02:06:09;;;;;;;15.60;11.90;;;;;;;13.07;77.25;100563.59;94427;1192;97031;-68
2021/09/10 02:08:17;;;;;;;17.40;11.60;;;;;;;13.06;77.23;100565.45;94426;1192;87965;-69
2021/09/10 02:10:24;;;;;;;13.90;11.20;;;;;;;13.03;77.30;100567.78;94386;1192;94012;-73
2021/09/10 02:12:32;;;;;;;18.60;12.50;;;;;;;13.01;77.33;100567.30;94407;1192;78922;-73
2021/09/10 02:14:39;;;;;;;15.00;11.70;;;;;;;13.02;77.41;100568.27;94463;1192;80685;-73
2021/09/10 02:16:47;;;;;;;16.90;11.40;;;;;;;13.00;77.43;100564.79;94417;1192;97088;-74
2021/09/10 02:18:55;;;;;;;15.70;12.30;;;;;;;13.01;77.51;100566.98;94436;1192;86281;-74
2021/09/10 02:21:03;;;;;;;15.90;12.00;;;;;;;12.97;77.52;100570.54;94216;1193;95715;-69
2021/09/10 02:23:10;;;;;;;14.80;11.70;;;;;;;12.93;77.49;100567.81;94435;1192;79947;-68
2021/09/10 02:25:18;;;;;;;15.20;11.90;;;;;;;12.90;77.59;100566.70;94407;1192;81739;-73
2021/09/10 02:27:25;;;;;;;17.20;12.40;;;;;;;12.85;77.56;100564.59;94390;1192;97795;-73
2021/09/10 02:29:33;;;;;;;15.30;11.80;;;;;;;12.78;77.60;100569.09;94421;1192;87162;-69
2021/09/10 02:31:41;;;;;;;17.00;11.90;;;;;;;12.70;77.63;100566.61;94389;1192;94355;-69
2021/09/10 02:33:48;;;;;;;17.10;11.70;;;;;;;12.63;77.78;100567.45;94456;1192;77933;-68
2021/09/10 02:36:00;;;;;;;14.30;11.30;;;;;;;12.55;77.80;100563.36;94469;1192;82024;-72
2021/09/10 02:38:07;;;;;;;14.70;11.90;;;;;;;12.47;77.82;100562.95;94403;1192;97110;-71
2021/09/10 02:40:16;;;;;;;15.60;11.30;;;;;;;12.42;77.78;100563.34;94394;1192;86986;-72
2021/09/10 02:42:23;;;;;;;15.30;12.00;;;;;;;12.37;77.70;100567.23;94476;1192;94114;-74
2021/09/10 02:44:31;;;;;;;13.30;11.00;;;;;;;12.33;77.79;100565.02;94464;1192;78675;-71
2021/09/10 02:46:39;;;;;;;16.20;13.00;;;;;;;12.26;77.84;100571.39;94448;1192;81922;-72
2021/09/10 02:48:46;;;;;;;14.30;12.00;;;;;;;12.23;77.98;100573.16;94468;1192;97719;-77
2021/09/10 02:50:54;;;;;;;15.00;12.00;;;;;;;12.20;78.04;100569.46;94436;1192;87956;-73
2021/09/10 02:53:01;;;;;;;16.30;12.20;;;;;;;12.15;78.04;100569.09;94467;1192;94342;-73
2021/09/10 02:55:12;;;;;;;17.10;11.80;;;;;;;12.12;78.11;100569.48;94425;1192;79856;-68
2021/09/10 02:57:19;;;;;;;16.00;11.90;;;;;;;12.08;78.20;100568.83;94474;1192;81142;-68
2021/09/10 02:59:27;;;;;;;16.00;12.30;;;;;;;12.04;78.20;100572.25;94430;1192;98642;-72
2021/09/10 03:01:34;;;;;;;15.10;11.50;;;;;;;12.00;78.29;100566.25;94442;1192;87987;-73
2021/09/10 03:03:42;;;;;;;14.30;11.20;;;;;;;11.95;78.39;100566.06;94259;1193;94218;-74
2021/09/10 03:05:49;;;;;;;14.90;12.30;;;;;;;11.88;78.28;100559.14;94434;1192;78097;-73
2021/09/10 03:07:58;;;;;;;15.50;11.70;;;;;;;11.84;78.41;100560.97;94446;1192;80621;-73
2021/09/10 03:10:07;;;;;;;16.20;11.50;;;;;;;11.74;78.55;100563.29;94404;1185;97130;-68
2021/09/10 03:12:15;;;;;;;14.50;11.30;;;;;;;11.67;78.57;100564.18;94452;1192;86835;-68
2021/09/10 03:14:25;;;;;;;15.50;11.60;;;;;;;11.63;78.75;100563.52;94479;1192;92085;-71
2021/09/10 03:16:33;;;;;;;14.40;12.10;;;;;;;11.60;78.89;100559.61;94374;1192;78833;-73
2021/09/10 03:18:40;;;;;;;15.20;12.00;;;;;;;11.61;78.94;100561.97;94471;1192;81331;-71
2021/09/10 03:20:49;;;;;;;14.90;12.40;;;;;;;11.57;78.94;100560.20;94411;1192;97870;-68
2021/09/10 03:22:59;;;;;;;15.60;12.30;;;;;;;11.51;78.99;100559.89;94425;1192;87676;-69
2021/09/10 03:25:09;;;;;;;15.10;11.40;;;;;;;11.49;79.01;100558.73;94457;1192;94558;-69
2021/09/10 03:27:20;;;;;;;15.70;11.80;;;;;;;11.47;79.04;100558.99;94452;1192;78609;-69
2021/09/10 03:29:32;;;;;;;16.80;12.00;;;;;;;11.46;79.21;100559.48;94464;1192;80886;-70
2021/09/10 03:31:43;;;;;;;16.10;11.50;;;;;;;11.43;79.27;100559.80;94412;1192;98899;-68
2021/09/10 03:33:51;;;;;;;16.00;12.70;;;;;;;11.45;79.32;100560.11;94437;1192;87442;-68
2021/09/10 03:35:58;;;;;;;16.00;12.30;;;;;;;11.47;79.38;100563.29;94427;1192;95088;-73
2021/09/10 03:38:06;;;;;;;15.00;11.10;;;;;;;11.48;79.48;100564.10;94446;1192;79712;-73
2021/09/10 03:40:16;;;;;;;14.00;11.40;;;;;;;11.46;79.62;100562.45;94432;1192;81276;-68
2021/09/10 03:42:23;;;;;;;14.20;11.50;;;;;;;11.44;79.64;100560.77;94482;1192;97076;-68
2021/09/10 03:44:31;;;;;;;16.60;12.20;;;;;;;11.45;79.62;100561.23;94445;1192;87566;-69
2021/09/10 03:46:39;;;;;;;17.50;11.80;;;;;;;11.44;79.65;100558.39;94390;1192;94019;-68
2021/09/10 03:48:50;;;;;;;17.30;12.00;;;;;;;11.44;79.61;100560.97;94417;1192;80692;-69
2021/09/10 03:50:57;;;;;;;14.40;11.60;;;;;;;11.44;79.69;100562.22;94463;1192;82084;-74
2021/09/10 03:53:05;;;;;;;15.60;11.40;;;;;;;11.42;79.80;100556.46;94463;1192;98623;-72
2021/09/10 03:55:15;;;;;;;15.10;12.30;;;;;;;11.39;79.79;100555.46;94427;1192;86654;-68
2021/09/10 03:57:24;;;;;;;16.50;12.10;;;;;;;11.37;79.72;100561.67;94451;1192;94947;-67
2021/09/10 03:59:35;;;;;;;17.30;11.30;;;;;;;11.39;79.79;100558.20;94393;1192;81182;-69
2021/09/10 04:01:44;;;;;;;13.30;10.90;;;;;;;11.41;79.78;100560.02;94175;1193;82134;-68
2021/09/10 04:03:51;;;;;;;18.00;11.70;;;;;;;11.45;79.83;100558.89;94449;1192;96582;-69
2021/09/10 04:05:59;;;;;;;16.20;12.10;;;;;;;11.48;79.86;100556.07;94401;1192;85749;-67
2021/09/10 04:08:08;;;;;;;15.50;10.90;;;;;;;11.52;79.92;100560.19;94464;1192;94290;-70
2021/09/10 04:10:19;;;;;;;14.80;11.90;;;;;;;11.55;79.89;100553.97;94466;1192;80159;-72
2021/09/10 04:12:26;;;;;;;13.90;11.70;;;;;;;11.53;79.85;100557.33;94460;1192;82361;-71
2021/09/10 04:14:38;;;;;;;14.70;11.40;;;;;;;11.53;79.82;100559.33;94415;1192;99045;-68
2021/09/10 04:16:49;;;;;;;15.50;11.40;;;;;;;11.50;79.83;100558.75;94453;1192;87687;-68
2021/09/10 04:18:57;;;;;;;15.30;11.50;;;;;;;11.46;79.79;100561.41;94435;1192;92853;-67
2021/09/10 04:21:04;;;;;;;15.70;11.90;;;;;;;11.44;79.81;100562.23;94376;1192;81027;-68
2021/09/10 04:23:12;;;;;;;14.70;10.70;;;;;;;11.43;79.86;100561.46;94432;1192;81482;-69
2021/09/10 04:25:20;;;;;;;12.90;10.80;;;;;;;11.41;79.88;100558.11;94215;1193;97811;-68
2021/09/10 04:27:28;;;;;;;15.00;11.10;;;;;;;11.39;79.94;100562.63;94226;1193;87281;-68
2021/09/10 04:29:36;;;;;;;15.80;11.30;;;;;;;11.43;79.98;100565.83;94408;1192;94874;-67
2021/09/10 04:31:43;;;;;;;14.40;11.40;;;;;;;11.43;79.95;100561.00;94362;1177;78760;-68
2021/09/10 04:33:51;;;;;;;13.40;11.20;;;;;;;11.44;80.09;100562.19;94406;1192;82126;-69
2021/09/10 04:35:59;;;;;;;14.60;11.40;;;;;;;11.46;80.06;100562.33;94372;1192;98510;-75
2021/09/10 04:38:06;;;;;;;13.90;11.20;;;;;;;11.47;80.13;100561.99;94418;1192;87252;-74
2021/09/10 04:40:18;;;;;;;16.90;11.70;;;;;;;11.51;80.17;100561.85;94403;1192;94223;-73
2021/09/10 04:42:26;;;;;;;12.60;10.80;;;;;;;11.59;80.11;100566.77;94366;1192;79181;-73
2021/09/10 04:44:34;;;;;;;14.00;12.10;;;;;;;11.62;80.10;100568.46;94427;1192;81655;-68
2021/09/10 04:46:41;;;;;;;13.80;11.20;;;;;;;11.66;80.17;100567.20;94394;1192;98232;-67
2021/09/10 04:48:49;;;;;;;15.30;10.90;;;;;;;11.71;80.27;100568.91;94244;1193;88183;-67
2021/09/10 04:50:59;;;;;;;14.50;12.20;;;;;;;11.80;80.31;100566.84;94371;1192;93340;-68
2021/09/10 04:53:07;;;;;;;16.90;11.80;;;;;;;11.90;80.34;100560.02;94406;1192;79706;-69
2021/09/10 04:55:16;;;;;;;13.20;11.20;;;;;;;11.97;80.42;100562.48;94398;1192;82504;-69
2021/09/10 04:57:25;;;;;;;15.50;12.00;;;;;;;12.06;80.48;100565.35;94431;1192;98750;-68
2021/09/10 04:59:35;;;;;;;14.70;11.60;;;;;;;12.19;80.47;100559.16;94236;1193;87495;-72
2021/09/10 05:01:43;;;;;;;15.70;12.50;;;;;;;12.32;80.52;100561.05;94427;1192;92593;-73
2021/09/10 05:03:51;;;;;;;23.90;12.50;;;;;;;12.48;80.50;100560.96;94375;1192;81335;-73
2021/09/10 05:06:02;;;;;;;14.20;11.40;;;;;;;12.63;80.51;100563.59;94382;1192;81677;-57
2021/09/10 05:08:09;;;;;;;13.40;10.80;;;;;;;12.73;80.46;100566.93;94392;1192;97858;-72
2021/09/10 05:10:17;;;;;;;16.00;12.10;;;;;;;12.86;80.49;100570.19;94401;1192;87025;-71
2021/09/10 05:12:24;;;;;;;16.10;12.70;;;;;;;13.15;80.61;100567.39;94415;1192;92347;-72
2021/09/10 05:14:32;;;;;;;17.50;11.30;;;;;;;13.78;81.29;100567.82;94365;1192;80735;-70
2021/09/10 05:16:40;;;;;;;15.30;11.30;;;;;;;14.96;81.47;100566.06;94422;1192;81990;-69
2021/09/10 05:18:50;;;;;;;15.00;11.10;;;;;;;16.53;79.95;100563.52;94408;1192;98170;-68
2021/09/10 05:21:01;;;;;;;17.80;11.30;;;;;;;18.15;78.17;100560.77;94182;1193;86628;-67
2021/09/10 05:23:09;;;;;;;14.60;10.40;;;;;;;19.23;76.26;100559.54;94357;1192;92578;-69
2021/09/10 05:25:16;;;;;;;15.30;11.20;;;;;;;20.28;73.94;100555.41;94376;1192;78754;-71
2021/09/10 05:27:23;;;;;;;13.90;11.00;;;;;;;21.06;71.90;100555.16;94436;1192;80557;-69
2021/09/10 05:29:34;;;;;;;15.30;11.80;;;;;;;20.70;70.05;100558.46;94387;1192;95918;-78
2021/09/10 05:31:41;;;;;;;12.90;10.40;;;;;;;19.80;69.29;100557.95;94438;1192;86478;-75
2021/09/10 05:33:49;;;;;;;16.30;11.60;;;;;;;18.97;69.14;100563.34;94408;1192;93913;-75
2021/09/10 05:35:57;;;;;;;16.50;11.20;;;;;;;18.35;69.12;100569.55;94407;1192;79465;-69
2021/09/10 05:38:04;;;;;;;17.10;10.90;;;;;;;17.82;69.30;100568.60;94425;1192;81845;-65
2021/09/10 05:40:15;;;;;;;13.30;10.20;;;;;;;17.45;69.57;100562.58;94374;1192;96504;-63
2021/09/10 05:42:22;;;;;;;14.60;10.70;;;;;;;17.07;69.89;100570.59;94386;1192;87451;-68
2021/09/10 05:44:30;;;;;;;15.70;10.20;;;;;;;16.81;70.26;100573.65;94324;1192;94425;-71
2021/09/10 05:46:38;;;;;;;17.40;10.70;;;;;;;16.61;70.52;100576.08;94187;1179;79654;-71
2021/09/10 05:48:45;;;;;;;13.80;10.30;;;;;;;16.46;70.81;100580.24;94366;1193;79634;-70
2021/09/10 05:50:54;;;;;;;13.10;10.60;;;;;;;16.37;71.08;100578.86;94316;1192;97179;-70
2021/09/10 05:53:02;;;;;;;14.60;11.90;;;;;;;16.54;71.02;100581.45;94236;1193;87047;-69
2021/09/10 05:55:13;;;;;;;14.70;10.90;;;;;;;16.66;71.03;100579.73;94368;1192;92978;-71
2021/09/10 05:57:21;;;;;;;14.00;10.80;;;;;;;17.05;71.05;100582.54;94336;1192;79957;-71
2021/09/10 05:59:28;;;;;;;17.20;11.50;;;;;;;17.46;70.44;100578.57;94331;1192;80110;-70
2021/09/10 06:01:36;;;;;;;15.50;10.50;;;;;;;17.41;69.94;100581.20;94339;1192;97858;-71
2021/09/10 06:03:44;;;;;;;13.80;11.10;;;;;;;17.37;69.94;100585.29;94380;1192;87180;-72
2021/09/10 06:05:52;;;;;;;17.10;10.80;;;;;;;17.35;69.79;100584.84;94297;1192;91425;-71
2021/09/10 06:08:01;;;;;;;15.70;10.80;;;;;;;17.41;69.77;100583.59;94329;1192;78888;-71
2021/09/10 06:10:13;;;;;;;14.80;10.90;;;;;;;17.44;69.74;100581.83;94369;1192;80656;-72
2021/09/10 06:12:20;;;;;;;15.30;10.50;;;;;;;17.36;69.72;100581.38;94332;1193;97529;-71
2021/09/10 06:14:28;;;;;;;16.20;10.40;;;;;;;17.31;69.50;100585.73;94359;1192;87644;-70
2021/09/10 06:16:36;;;;;;;14.60;11.00;;;;;;;17.25;69.32;100585.10;94359;1192;93081;-68
2021/09/10 06:18:43;;;;;;;12.90;10.00;;;;;;;17.27;69.44;100586.41;94380;1192;81358;-69
2021/09/10 06:20:51;;;;;;;13.90;10.20;;;;;;;17.28;69.47;100587.83;94199;1193;83083;-68
2021/09/10 06:22:58;;;;;;;17.60;10.20;;;;;;;17.31;69.52;100582.27;94380;1192;98655;-69
2021/09/10 06:25:09;;;;;;;18.60;11.00;;;;;;;17.43;69.53;100583.06;94381;1192;87721;-70
2021/09/10 06:27:20;;;;;;;16.10;10.30;;;;;;;17.62;69.36;100585.60;94372;1192;93986;-71
2021/09/10 06:29:31;;;;;;;14.30;10.00;;;;;;;17.78;69.38;100590.30;94364;1192;79926;-71
2021/09/10 06:31:40;;;;;;;13.00;10.40;;;;;;;17.84;69.29;100587.20;94319;1192;81487;-71
2021/09/10 06:33:48;;;;;;;13.40;10.00;;;;;;;17.83;69.08;100587.98;94375;1193;99185;-70
2021/09/10 06:35:56;;;;;;;15.60;9.40;;;;;;;17.80;68.95;100590.73;94337;1193;86960;-68
2021/09/10 06:38:04;;;;;;;13.40;9.90;;;;;;;17.82;69.00;100591.89;94328;1193;93704;-69
2021/09/10 06:40:15;;;;;;;15.10;9.80;;;;;;;17.83;68.84;100588.84;94348;1193;78626;-68
2021/09/10 06:42:22;;;;;;;20.30;10.40;;;;;;;17.87;68.86;100590.81;94402;1192;81678;-68
2021/09/10 06:44:30;;;;;;;14.20;9.20;;;;;;;17.94;68.41;100589.31;94242;1193;97413;-68
2021/09/10 06:46:37;;;;;;;12.80;9.60;;;;;;;18.42;68.07;100594.63;94388;1192;87888;-66
2021/09/10 06:48:45;;;;;;;13.40;9.40;;;;;;;19.24;67.57;100590.70;94398;1192;94987;-68
2021/09/10 06:50:53;;;;;;;12.10;9.40;;;;;;;19.39;66.84;100586.55;94326;1192;79695;-68
2021/09/10 06:53:01;;;;;;;15.30;9.30;;;;;;;19.19;66.57;100593.52;94364;1193;82035;-68
2021/09/10 06:55:11;;;;;;;12.20;9.00;;;;;;;19.04;66.74;100592.29;94349;1192;95653;-73
2021/09/10 06:57:18;;;;;;;12.80;8.60;;;;;;;19.03;66.90;100591.08;94323;1193;88768;-73
2021/09/10 06:59:26;;;;;;;12.50;9.20;;;;;;;19.14;67.03;100593.98;94348;1192;94388;-71
2021/09/10 07:01:35;;;;;;;11.20;8.80;;;;;;;19.17;66.90;100594.39;94324;1193;78636;-72
2021/09/10 07:03:42;;;;;;;14.20;9.40;;;;;;;19.17;66.89;100598.05;94362;1192;81420;-71
2021/09/10 07:05:53;;;;;;;15.60;9.30;;;;;;;19.20;66.78;100598.57;94352;1193;98987;-68
2021/09/10 07:08:00;;;;;;;11.70;8.80;;;;;;;19.21;66.70;100601.98;94397;1193;87528;-67
2021/09/10 07:10:10;;;;;;;15.20;9.30;;;;;;;19.24;66.47;100604.58;94312;1193;93963;-60
2021/09/10 07:12:18;;;;;;;12.20;8.40;;;;;;;19.28;66.47;100606.97;94332;1193;78493;-58
2021/09/10 07:14:25;;;;;;;12.70;9.10;;;;;;;19.30;66.43;100601.54;94302;1193;80989;-70
2021/09/10 07:16:34;;;;;;;13.00;8.60;;;;;;;19.37;66.29;100609.55;94353;1192;97441;-68
2021/09/10 07:18:42;;;;;;;12.20;8.60;;;;;;;19.40;66.30;100608.56;94258;1193;86621;-57
2021/09/10 07:20:50;;;;;;;14.50;9.00;;;;;;;19.40;65.76;100608.73;94345;1193;93940;-65
2021/09/10 07:22:57;;;;;;;13.70;8.60;;;;;;;19.42;65.98;100611.19;94368;1193;79335;-56
2021/09/10 07:25:06;;;;;;;12.90;8.50;;;;;;;19.54;65.73;100615.72;94356;1193;80572;-57
2021/09/10 07:27:13;;;;;;;14.00;8.40;;;;;;;19.54;65.31;100611.59;94396;1192;96998;-58
2021/09/10 07:29:25;;;;;;;29.50;23.30;;;;;;;19.63;65.46;100607.51;94364;1193;89214;-58
2021/09/10 07:31:34;;;;;;;19.40;13.90;;;;;;;19.76;65.66;100607.07;94328;1192;92992;-58
2021/09/10 07:33:43;;;;;;;14.20;8.90;;;;;;;20.26;65.82;100614.70;94361;1192;80752;-65
2021/09/10 07:35:50;;;;;;;12.30;8.00;;;;;;;20.65;64.98;100611.27;94329;1193;80670;-65
2021/09/10 07:37:58;;;;;;;12.70;7.80;;;;;;;20.66;64.56;100614.07;94339;1193;96918;-64
2021/09/10 07:40:07;;;;;;;11.20;8.60;;;;;;;20.56;64.37;100618.33;94379;1193;86650;-57
2021/09/10 07:42:15;;;;;;;12.30;8.30;;;;;;;20.51;64.37;100618.29;94367;1193;94628;-57
2021/09/10 07:44:23;;;;;;;11.40;7.80;;;;;;;20.50;64.37;100617.94;94362;1192;78664;-59
2021/09/10 07:46:30;;;;;;;10.00;7.40;;;;;;;20.44;63.86;100622.79;94347;1192;82627;-57
2021/09/10 07:48:38;;;;;;;13.00;8.40;;;;;;;20.39;63.61;100623.52;94365;1193;97920;-57
2021/09/10 07:50:46;;;;;;;14.10;7.90;;;;;;;20.40;63.94;100623.25;94373;1193;87867;-68
2021/09/10 07:52:56;;;;;;;11.00;7.80;;;;;;;20.43;64.39;100623.55;94341;1193;92415;-69
2021/09/10 07:55:05;;;;;;;14.60;7.10;;;;;;;20.61;63.82;100623.91;94339;1193;78298;-64
2021/09/10 07:57:13;;;;;;;10.40;7.40;;;;;;;21.07;63.74;100625.30;94425;1192;81093;-65
2021/09/10 07:59:23;;;;;;;14.00;7.50;;;;;;;21.41;63.65;100622.58;94400;1193;97552;-65
2021/09/10 08:01:31;;;;;;;10.40;6.60;;;;;;;21.85;62.62;100625.29;94328;1193;88356;-66
2021/09/10 08:03:38;;;;;;;11.30;6.80;;;;;;;22.84;62.47;100629.29;94349;1193;94430;-58
2021/09/10 08:05:46;;;;;;;13.40;7.00;;;;;;;23.89;60.98;100625.42;94349;1193;79441;-60
2021/09/10 08:07:53;;;;;;;12.00;7.60;;;;;;;24.97;59.87;100624.17;94342;1193;82337;-66
2021/09/10 08:10:01;;;;;;;9.50;6.80;;;;;;;26.22;59.03;100621.46;94195;1193;97871;-58
2021/09/10 08:12:10;;;;;;;9.70;7.40;;;;;;;27.53;57.15;100625.85;94356;1193;86216;-57
2021/09/10 08:14:18;;;;;;;9.40;6.40;;;;;;;28.82;55.73;100618.48;94350;1193;93634;-60
2021/09/10 08:16:25;;;;;;;9.90;6.70;;;;;;;30.10;53.94;100616.61;94284;1192;78919;-58
2021/09/10 08:18:33;;;;;;;8.00;6.80;;;;;;;31.21;52.23;100611.07;94360;1193;81029;-58
2021/09/10 08:20:41;;;;;;;8.80;6.10;;;;;;;31.95;50.13;100611.25;94310;1193;98252;-67
2021/09/10 08:22:48;;;;;;;8.20;6.50;;;;;;;32.71;47.79;100604.77;94251;1193;86591;-58
2021/09/10 08:24:59;;;;;;;9.50;6.80;;;;;;;32.84;46.09;100602.04;94291;1193;94710;-66
2021/09/10 08:27:07;;;;;;;12.70;6.90;;;;;;;33.13;45.42;100599.41;94362;1193;78834;-67
2021/09/10 08:29:17;;;;;;;8.60;6.10;;;;;;;33.56;44.24;100601.23;94399;1193;81156;-64
2021/09/10 08:31:25;;;;;;;8.30;6.60;;;;;;;33.94;42.99;100595.71;94331;1192;96647;-58
2021/09/10 08:33:32;;;;;;;11.80;7.10;;;;;;;33.93;41.84;100595.59;94346;1192;88066;-59
2021/09/10 08:35:40;;;;;;;10.20;6.70;;;;;;;34.30;40.95;100591.88;94285;1192;94183;-58
2021/09/10 08:37:48;;;;;;;11.00;6.30;;;;;;;34.51;40.69;100590.20;94276;1193;79652;-58
2021/09/10 08:39:57;;;;;;;7.30;6.30;;;;;;;34.75;39.61;100591.17;94313;1193;81966;-67
2021/09/10 08:42:05;;;;;;;7.90;6.50;;;;;;;34.67;38.57;100591.27;94312;1193;98245;-66
2021/09/10 08:44:19;;;;;;;10.70;6.40;;;;;;;34.93;38.34;100588.86;94330;1193;88915;-65
2021/09/10 08:46:30;;;;;;;8.50;6.10;;;;;;;35.03;37.76;100588.36;94326;1193;94194;-58
2021/09/10 08:48:37;;;;;;;11.20;6.30;;;;;;;35.16;37.09;100593.04;94362;1193;79681;-62
2021/09/10 08:50:46;;;;;;;8.30;6.10;;;;;;;35.22;36.84;100588.94;94373;1192;82362;-67
2021/09/10 08:52:54;;;;;;;8.30;6.40;;;;;;;35.21;36.22;100590.84;94338;1192;97973;-66
2021/09/10 08:55:07;;;;;;;10.80;6.10;;;;;;;35.05;36.22;100593.38;94312;1192;88119;-59
2021/09/10 08:57:18;;;;;;;9.10;6.00;;;;;;;35.20;35.75;100590.84;94302;1193;94299;-58
2021/09/10 08:59:26;;;;;;;8.80;6.00;;;;;;;34.63;34.65;100591.74;94263;1193;79498;-65
2021/09/10 09:01:35;;;;;;;8.40;5.50;;;;;;;34.85;35.01;100589.21;94328;1193;80545;-67
2021/09/10 09:03:42;;;;;;;8.80;5.90;;;;;;;34.97;35.26;100589.70;94392;1192;96539;-68
2021/09/10 09:05:52;;;;;;;10.70;6.30;;;;;;;34.78;35.24;100588.63;94320;1193;87611;-66
2021/09/10 09:08:12;;;;;;;10.50;5.90;;;;;;;35.01;35.24;100588.09;94232;1193;94185;-68
2021/09/10 09:10:20;;;;;;;7.60;5.80;;;;;;;35.31;34.72;100593.09;94323;1193;77462;-66
2021/09/10 09:12:30;;;;;;;10.30;7.10;;;;;;;35.52;34.18;100598.30;94354;1193;83170;-66
2021/09/10 09:14:49;;;;;;;8.20;6.10;;;;;;;35.24;34.14;100593.97;94338;1193;98171;-66
2021/09/10 09:16:56;;;;;;;7.60;5.80;;;;;;;35.05;34.31;100594.83;94325;1193;87407;-66
2021/09/10 09:19:07;;;;;;;8.20;5.60;;;;;;;35.25;34.47;100597.53;94335;1193;93779;-66
2021/09/10 09:21:27;;;;;;;8.70;5.90;;;;;;;35.41;33.83;100597.69;94329;1193;78366;-66
2021/09/10 09:23:35;;;;;;;9.80;5.50;;;;;;;35.33;33.27;100595.87;94338;1193;81535;-67
2021/09/10 09:25:47;;;;;;;6.30;5.30;;;;;;;35.31;33.22;100594.45;94267;1193;99358;-67
2021/09/10 09:28:15;;;;;;;12.50;5.80;;;;;;;35.17;33.05;100595.09;94338;1193;87838;-66
2021/09/10 09:30:42;;;;;;;10.30;5.90;;;;;;;34.47;32.59;100595.41;94305;1193;94362;-60
2021/09/10 09:32:51;;;;;;;7.70;5.20;;;;;;;34.27;32.92;100594.73;94280;1193;78695;-58
2021/09/10 09:35:02;;;;;;;10.60;5.40;;;;;;;34.02;32.92;100595.55;94282;1193;80831;-66
2021/09/10 09:37:10;;;;;;;9.60;5.10;;;;;;;34.18;32.74;100588.60;94374;1193;96102;-66
2021/09/10 09:39:18;;;;;;;10.70;5.50;;;;;;;34.23;32.92;100592.88;94295;1193;86523;-57
2021/09/10 09:41:28;;;;;;;10.10;5.30;;;;;;;33.77;32.62;100588.72;94231;1192;94383;-58
2021/09/10 09:43:40;;;;;;;12.80;5.60;;;;;;;33.21;33.13;100586.56;94374;1192;79598;-59
2021/09/10 09:45:53;;;;;;;8.80;6.00;;;;;;;33.01;33.18;100588.23;94307;1192;82187;-69
2021/09/10 09:48:01;;;;;;;8.00;5.30;;;;;;;32.42;34.05;100589.56;94305;1193;97983;-72